Terminal Aerodrome Forecast
Issued by NWS

Home | Current Version | Previous Version | Text Only | Print | Product List | Glossary On
Versions: 1 2 3 4 5 6 7 8 9 10 11 12
246
FTUS45 KRIW 220533
TAFBPI
TAF
KBPI 220533Z 2206/2306 33008KT P6SM VCSH SCT050 BKN100
     FM220900 35005KT P6SM SCT100
     FM221500 14005KT P6SM BKN100
     FM222000 11012G20KT P6SM VCTS SCT060CB BKN090
     FM230100 01007KT 5SM TSRA BR BKN025CB OVC090=

USA.gov is the U.S. government's official web portal to all federal, state and local government web resources and services.